Time;durP1;ratioP1;P1;durP2;ratioP2;P2;SDS_P1;SDS_P2;PMS_P1;PMS_P2;Temp;Humidity;BMP_temperature;BMP_pressure;BME280_temperature;BME280_humidity;BME280_pressure;Samples;Min_cycle;Max_cycle;Signal;HPM_P1;HPM_P2
2021/03/13 00:01:50;;;;;;;9.98;6.60;;;;;;;10.28;68.72;101512.44;4992024;28;20038;-68
2021/03/13 00:04:19;;;;;;;8.57;5.10;;;;;;;10.29;69.35;101511.59;5009846;28;20507;-68
2021/03/13 00:06:46;;;;;;;11.43;4.80;;;;;;;10.32;69.80;101518.69;5010161;28;20041;-68
2021/03/13 00:09:13;;;;;;;8.68;4.57;;;;;;;10.40;70.10;101517.19;5010469;28;20116;-68
2021/03/13 00:11:40;;;;;;;8.95;4.95;;;;;;;10.51;70.22;101514.81;5010298;28;20037;-67
2021/03/13 00:14:07;;;;;;;10.52;5.05;;;;;;;10.56;70.12;101511.50;5009939;28;20066;-68
2021/03/13 00:16:34;;;;;;;9.15;5.25;;;;;;;10.53;70.08;101506.09;5009925;28;20042;-68
2021/03/13 00:19:01;;;;;;;9.30;5.45;;;;;;;10.51;70.20;101510.44;5008951;28;20373;-68
2021/03/13 00:21:29;;;;;;;10.05;5.05;;;;;;;10.51;70.16;101514.81;5010239;28;20184;-68
2021/03/13 00:23:56;;;;;;;11.02;5.18;;;;;;;10.50;70.52;101497.22;5009881;28;20033;-68
2021/03/13 00:26:23;;;;;;;13.93;8.00;;;;;;;10.49;70.20;101492.78;5008287;28;20046;-68
2021/03/13 00:28:51;;;;;;;19.33;15.15;;;;;;;10.38;70.09;101505.66;4992462;28;20118;-68
2021/03/13 00:31:17;;;;;;;17.52;14.20;;;;;;;10.28;70.50;101519.47;5010063;28;20454;-68
2021/03/13 00:33:45;;;;;;;10.77;6.78;;;;;;;10.33;70.30;101513.47;5009607;28;20408;-69
2021/03/13 00:36:12;;;;;;;10.05;5.53;;;;;;;10.40;70.29;101517.19;5010087;28;20439;-67
2021/03/13 00:38:41;;;;;;;12.73;6.30;;;;;;;10.39;70.33;101511.00;5009969;28;20391;-68
2021/03/13 00:41:08;;;;;;;12.40;7.82;;;;;;;10.36;70.14;101500.38;5009633;28;20048;-68
2021/03/13 00:43:35;;;;;;;9.32;6.30;;;;;;;10.22;70.01;101508.75;5010116;28;20457;-68
2021/03/13 00:46:02;;;;;;;10.85;5.82;;;;;;;10.14;69.92;101500.56;5009125;28;20084;-68
2021/03/13 00:48:29;;;;;;;8.98;5.05;;;;;;;10.12;70.05;101491.69;5014143;28;20054;-68
2021/03/13 00:50:56;;;;;;;13.68;5.10;;;;;;;10.15;70.51;101496.19;5013719;28;20099;-68
2021/03/13 00:53:23;;;;;;;11.85;5.13;;;;;;;10.18;71.04;101491.91;5014171;28;20394;-68
2021/03/13 00:55:51;;;;;;;12.45;5.47;;;;;;;10.26;71.20;101490.38;5013016;28;20038;-67
2021/03/13 00:58:19;;;;;;;12.25;5.32;;;;;;;10.29;70.68;101477.31;5013443;28;20038;-67
2021/03/13 01:00:46;;;;;;;10.90;6.30;;;;;;;10.22;70.42;101466.53;5013414;28;20529;-68
2021/03/13 01:03:13;;;;;;;15.57;6.15;;;;;;;10.15;70.33;101467.16;5013806;28;20446;-68
2021/03/13 01:05:40;;;;;;;9.50;4.97;;;;;;;10.03;70.39;101459.81;5013804;28;20537;-67
2021/03/13 01:08:07;;;;;;;9.60;4.78;;;;;;;10.00;71.02;101457.06;5013022;28;20042;-67
2021/03/13 01:10:35;;;;;;;10.32;4.80;;;;;;;10.01;71.14;101453.56;5013950;28;20046;-68
2021/03/13 01:13:05;;;;;;;10.88;6.15;;;;;;;10.07;71.13;101439.66;5012995;28;20096;-68
2021/03/13 01:15:32;;;;;;;21.00;11.25;;;;;;;10.09;71.31;101437.97;5013525;28;20053;-67
2021/03/13 01:18:00;;;;;;;14.23;8.40;;;;;;;10.02;71.21;101441.28;5028298;28;20498;-68
2021/03/13 01:20:27;;;;;;;13.20;7.53;;;;;;;9.91;71.29;101446.25;5013690;28;20038;-68
2021/03/13 01:22:55;;;;;;;20.48;9.57;;;;;;;9.88;71.61;101454.97;5012827;28;20142;-68
2021/03/13 01:25:22;;;;;;;22.15;10.90;;;;;;;9.89;71.36;101458.50;5013156;28;20045;-67
2021/03/13 01:27:49;;;;;;;13.32;7.97;;;;;;;9.93;71.13;101448.06;5012753;28;20034;-68
2021/03/13 01:30:21;;;;;;;12.82;6.57;;;;;;;9.98;71.19;101443.81;5013463;28;20608;-68
2021/03/13 01:32:48;;;;;;;9.82;5.07;;;;;;;9.98;71.00;101440.28;5012563;28;20084;-68
2021/03/13 01:35:15;;;;;;;10.90;5.45;;;;;;;9.93;70.74;101445.44;5012887;28;20088;-68
2021/03/13 01:37:43;;;;;;;9.48;5.10;;;;;;;9.84;71.03;101444.28;5012904;28;20573;-68
2021/03/13 01:40:14;;;;;;;9.48;4.75;;;;;;;9.81;71.04;101441.56;5012461;28;20452;-68
2021/03/13 01:42:42;;;;;;;9.93;5.00;;;;;;;9.79;71.23;101440.59;5013034;28;20048;-68
2021/03/13 01:45:12;;;;;;;9.30;4.88;;;;;;;9.76;71.61;101422.97;5012274;28;20038;-68
2021/03/13 01:47:40;;;;;;;8.85;5.13;;;;;;;9.78;71.73;101409.84;5013118;28;20038;-67
2021/03/13 01:50:10;;;;;;;11.02;5.00;;;;;;;9.81;71.96;101407.28;4994797;28;20499;-68
2021/03/13 01:52:38;;;;;;;10.07;4.45;;;;;;;9.80;72.06;101413.38;5012943;28;20133;-68
2021/03/13 01:55:08;;;;;;;10.38;5.57;;;;;;;9.83;72.43;101417.03;5012325;28;20030;-67
2021/03/13 01:57:36;;;;;;;12.35;6.43;;;;;;;9.83;72.68;101417.03;5012500;28;20552;-68
2021/03/13 02:00:06;;;;;;;11.20;6.32;;;;;;;9.85;72.58;101409.13;5011833;28;20133;-68
2021/03/13 02:02:33;;;;;;;9.98;5.00;;;;;;;9.80;72.60;101405.47;5012878;28;20042;-68
2021/03/13 02:05:02;;;;;;;9.63;4.95;;;;;;;9.83;72.33;101406.47;5012054;28;20565;-68
2021/03/13 02:07:36;;;;;;;15.00;7.40;;;;;;;9.85;72.52;101411.78;5012583;28;20053;-67
2021/03/13 02:10:07;;;;;;;8.73;4.65;;;;;;;9.81;72.08;101421.34;5012147;28;20038;-68
2021/03/13 02:12:49;;;;;;;11.18;4.82;;;;;;;9.74;72.33;101413.22;4995363;28;20045;-67
2021/03/13 02:15:25;;;;;;;7.05;4.45;;;;;;;9.66;72.37;101415.63;5011650;28;20060;-68
2021/03/13 02:17:59;;;;;;;10.45;4.95;;;;;;;9.66;72.03;101415.63;5011639;28;20042;-66
2021/03/13 02:20:51;;;;;;;8.30;4.60;;;;;;;9.59;72.12;101416.28;5012384;28;20598;-68
2021/03/13 02:23:20;;;;;;;16.48;5.18;;;;;;;9.53;72.23;101395.91;5012078;28;20122;-67
2021/03/13 02:26:05;;;;;;;13.00;5.60;;;;;;;9.52;72.41;101394.13;4992422;28;20070;-68
2021/03/13 02:28:41;;;;;;;9.30;4.40;;;;;;;9.53;72.58;101408.19;5007581;28;20050;-68
2021/03/13 02:31:11;;;;;;;15.10;5.43;;;;;;;9.52;73.18;101404.66;5011309;28;20133;-68
2021/03/13 02:33:42;;;;;;;10.30;5.00;;;;;;;9.58;73.27;101399.56;5011997;28;20422;-68
2021/03/13 02:36:12;;;;;;;7.82;5.25;;;;;;;9.66;73.73;101397.16;5011250;28;20048;-67
2021/03/13 02:38:46;;;;;;;9.85;4.82;;;;;;;9.65;73.35;101399.78;5012356;28;20132;-68
2021/03/13 02:41:18;;;;;;;8.10;4.25;;;;;;;9.59;73.23;101397.84;5011086;28;20042;-68
2021/03/13 02:43:49;;;;;;;8.43;4.20;;;;;;;9.51;73.10;101395.00;4992426;28;20049;-67
2021/03/13 02:46:21;;;;;;;11.55;4.68;;;;;;;9.46;73.31;101385.13;4992231;28;20045;-68
2021/03/13 02:48:48;;;;;;;10.40;5.07;;;;;;;9.44;73.88;101389.50;4992148;28;20160;-68
2021/03/13 02:51:18;;;;;;;10.02;4.93;;;;;;;9.48;74.27;101380.81;4992346;28;20039;-67
2021/03/13 02:53:47;;;;;;;10.48;4.95;;;;;;;9.52;74.46;101387.94;4992371;28;20129;-68
2021/03/13 02:56:16;;;;;;;25.60;18.60;;;;;;;9.49;74.11;101404.59;4996172;28;20391;-67
2021/03/13 02:58:44;;;;;;;11.45;5.22;;;;;;;9.39;73.99;101409.50;5007384;28;20049;-68
2021/03/13 03:01:12;;;;;;;9.07;5.20;;;;;;;9.41;74.30;101410.47;5011151;28;20141;-68
2021/03/13 03:03:43;;;;;;;9.88;5.15;;;;;;;9.47;74.55;101411.53;5011820;28;20493;-68
2021/03/13 03:06:11;;;;;;;9.70;4.70;;;;;;;9.50;74.58;101411.66;5011198;28;20126;-68
2021/03/13 03:08:39;;;;;;;40.45;27.17;;;;;;;9.45;74.38;101431.69;5011473;28;20180;-67
2021/03/13 03:11:07;;;;;;;31.10;17.42;;;;;;;9.32;74.40;101432.13;5011252;28;20589;-68
2021/03/13 03:13:34;;;;;;;10.02;7.20;;;;;;;9.31;74.42;101440.03;5011500;28;20131;-67
2021/03/13 03:16:04;;;;;;;10.38;6.25;;;;;;;9.31;74.06;101450.56;5010775;28;20538;-68
2021/03/13 03:18:32;;;;;;;9.75;5.03;;;;;;;9.32;74.10;101461.13;4994346;28;20042;-68
2021/03/13 03:21:01;;;;;;;9.88;5.43;;;;;;;9.37;74.07;101466.56;5011000;28;20038;-68
2021/03/13 03:23:29;;;;;;;12.68;4.85;;;;;;;9.37;74.42;101467.47;4978153;28;20030;-68
2021/03/13 03:25:56;;;;;;;10.80;5.05;;;;;;;9.38;74.32;101469.25;5010591;28;20053;-68
2021/03/13 03:28:26;;;;;;;9.35;5.05;;;;;;;9.35;74.33;101468.25;5011224;28;20068;-68
2021/03/13 03:30:54;;;;;;;8.60;4.13;;;;;;;9.31;74.28;101479.53;5010092;28;20049;-68
2021/03/13 03:33:21;;;;;;;10.98;5.28;;;;;;;9.29;74.14;101463.69;5010465;28;20042;-67
2021/03/13 03:35:49;;;;;;;8.30;4.53;;;;;;;9.29;74.18;101463.69;5010662;28;20483;-68
2021/03/13 03:38:18;;;;;;;11.77;5.43;;;;;;;9.31;74.52;101476.91;5010514;28;20125;-68
2021/03/13 03:40:47;;;;;;;17.88;11.48;;;;;;;9.30;74.75;101483.91;5011011;28;20128;-67
2021/03/13 03:43:19;;;;;;;64.00;36.97;;;;;;;9.25;74.76;101490.78;5010395;28;20050;-68
2021/03/13 03:45:52;;;;;;;12.13;5.75;;;;;;;9.27;74.57;101486.44;5010330;28;20037;-67
2021/03/13 03:48:22;;;;;;;10.55;5.38;;;;;;;9.27;74.60;101494.34;5010483;28;20096;-68
2021/03/13 03:50:50;;;;;;;15.02;6.22;;;;;;;9.33;74.63;101496.28;5010149;28;20049;-67
2021/03/13 03:53:23;;;;;;;14.30;9.10;;;;;;;9.32;74.24;101499.78;5011013;28;20064;-67
2021/03/13 03:55:53;;;;;;;28.08;21.38;;;;;;;9.22;74.52;101493.31;5010091;28;20033;-68
2021/03/13 03:58:24;;;;;;;23.17;17.20;;;;;;;9.22;74.55;101498.56;5010238;28;20129;-67
2021/03/13 04:00:52;;;;;;;10.57;5.70;;;;;;;9.18;74.33;101491.41;5010454;28;20259;-68
2021/03/13 04:03:22;;;;;;;9.02;5.35;;;;;;;9.17;74.22;101481.72;5009901;28;20109;-68
2021/03/13 04:05:49;;;;;;;10.32;4.90;;;;;;;9.22;74.29;101481.88;5009455;28;20446;-68
2021/03/13 04:08:19;;;;;;;10.43;4.07;;;;;;;9.22;74.44;101472.22;5010464;28;20108;-67
2021/03/13 04:10:48;;;;;;;10.88;4.50;;;;;;;9.23;74.45;101471.38;5009955;28;20046;-68
2021/03/13 04:13:18;;;;;;;8.55;3.65;;;;;;;9.23;74.39;101474.03;5010424;28;20376;-67
2021/03/13 04:15:47;;;;;;;9.93;4.32;;;;;;;9.23;74.43;101471.38;5009702;28;20038;-67
2021/03/13 04:18:16;;;;;;;12.73;4.55;;;;;;;9.16;74.47;101483.47;5008742;28;20038;-67
2021/03/13 04:20:46;;;;;;;9.15;4.93;;;;;;;9.18;74.29;101481.78;5010471;28;20049;-68
2021/03/13 04:23:14;;;;;;;14.50;6.35;;;;;;;9.17;74.31;101487.88;5009917;28;20092;-68
2021/03/13 04:25:43;;;;;;;8.18;4.80;;;;;;;9.18;73.97;101494.06;5009992;28;20088;-67
2021/03/13 04:28:10;;;;;;;8.20;4.40;;;;;;;9.16;73.71;101493.09;5008835;28;20160;-67
2021/03/13 04:30:37;;;;;;;9.05;4.60;;;;;;;9.13;73.46;101485.97;4993364;28;20085;-67
2021/03/13 04:33:05;;;;;;;9.73;4.60;;;;;;;9.14;73.56;101485.13;5009518;28;20038;-68
2021/03/13 04:35:33;;;;;;;6.03;4.00;;;;;;;9.19;73.67;101478.28;5006891;28;20145;-68
2021/03/13 04:38:03;;;;;;;11.07;3.83;;;;;;;9.31;73.45;101484.81;5009977;28;20118;-67
2021/03/13 04:40:30;;;;;;;8.00;3.78;;;;;;;9.41;73.33;101487.78;5010369;28;20080;-68
2021/03/13 04:43:00;;;;;;;9.43;6.32;;;;;;;9.39;73.14;101476.28;5008992;28;20053;-68
2021/03/13 04:45:28;;;;;;;10.02;4.82;;;;;;;9.35;73.14;101468.25;5010013;28;20046;-68
2021/03/13 04:47:56;;;;;;;11.93;3.90;;;;;;;9.30;72.83;101464.56;5009150;28;20041;-68
2021/03/13 04:50:23;;;;;;;9.43;4.75;;;;;;;9.26;73.11;101466.19;4992091;28;20049;-68
2021/03/13 04:52:51;;;;;;;10.65;4.07;;;;;;;9.26;72.94;101474.09;5007715;28;20037;-68
2021/03/13 04:55:19;;;;;;;11.00;3.85;;;;;;;9.28;73.01;101461.88;5009562;28;20130;-68
2021/03/13 04:57:47;;;;;;;8.75;4.68;;;;;;;9.31;72.94;101456.72;5009236;28;20042;-69
2021/03/13 05:00:17;;;;;;;9.02;3.72;;;;;;;9.38;73.14;101458.72;5009368;28;20084;-68
2021/03/13 05:02:44;;;;;;;10.43;4.75;;;;;;;9.47;73.06;101464.25;5009391;28;20037;-67
2021/03/13 05:05:12;;;;;;;16.30;10.15;;;;;;;9.62;73.00;101463.84;5009144;28;20045;-68
2021/03/13 05:07:39;;;;;;;11.30;4.35;;;;;;;9.75;73.04;101473.91;5009702;28;20172;-67
2021/03/13 05:10:09;;;;;;;6.95;3.47;;;;;;;9.89;73.31;101472.59;4991980;28;20056;-68
2021/03/13 05:12:36;;;;;;;13.38;7.05;;;;;;;9.99;73.29;101477.25;5009190;28;20120;-68
2021/03/13 05:15:03;;;;;;;18.13;13.05;;;;;;;10.13;73.76;101488.22;5009341;28;20046;-68
2021/03/13 05:17:32;;;;;;;11.38;6.80;;;;;;;10.37;74.04;101493.34;5009932;28;20499;-67
2021/03/13 05:19:59;;;;;;;13.05;6.93;;;;;;;10.55;73.75;101499.13;5008819;28;20038;-68
2021/03/13 05:22:27;;;;;;;10.40;4.45;;;;;;;10.74;73.71;101497.88;5009057;28;20046;-68
2021/03/13 05:24:54;;;;;;;9.13;3.30;;;;;;;10.99;73.36;101499.41;5009061;28;20044;-68
2021/03/13 05:27:21;;;;;;;6.35;3.10;;;;;;;11.27;73.52;101499.25;4992209;28;20121;-68
2021/03/13 05:29:48;;;;;;;6.55;3.17;;;;;;;11.57;72.80;101499.06;5008841;28;20384;-68
2021/03/13 05:32:16;;;;;;;6.72;2.92;;;;;;;11.78;71.57;101491.66;5008599;28;20038;-67
2021/03/13 05:34:45;;;;;;;5.65;3.00;;;;;;;12.01;70.33;101492.19;5011670;28;20050;-67
2021/03/13 05:37:11;;;;;;;5.28;2.60;;;;;;;12.22;69.92;101489.06;5012791;28;20053;-68
2021/03/13 05:39:38;;;;;;;4.72;2.78;;;;;;;12.50;69.72;101488.78;5012877;28;20038;-68
2021/03/13 05:42:08;;;;;;;5.15;3.05;;;;;;;12.68;69.39;101475.88;5011850;28;20559;-68
2021/03/13 05:44:36;;;;;;;6.00;2.97;;;;;;;12.88;69.24;101473.56;4997946;28;20501;-68
2021/03/13 05:47:03;;;;;;;7.07;2.83;;;;;;;13.05;68.96;101474.78;5012447;28;20052;-68
2021/03/13 05:49:32;;;;;;;7.68;2.55;;;;;;;13.09;68.73;101476.59;5012093;28;20692;-68
2021/03/13 05:52:04;;;;;;;6.00;2.92;;;;;;;13.05;68.63;101476.53;5012507;28;20046;-68
2021/03/13 05:54:32;;;;;;;6.57;3.95;;;;;;;12.93;68.58;101466.59;5013070;28;20062;-68
2021/03/13 05:57:00;;;;;;;14.55;6.53;;;;;;;12.84;68.50;101470.84;5012588;28;20074;-68
2021/03/13 05:59:28;;;;;;;18.40;8.15;;;;;;;12.76;68.65;101468.06;5012530;28;20042;-68
2021/03/13 06:01:55;;;;;;;40.42;18.90;;;;;;;12.69;68.98;101487.34;5010758;28;20555;-69
2021/03/13 06:04:22;;;;;;;78.55;34.33;;;;;;;12.60;69.21;101482.78;4994080;28;20046;-68
2021/03/13 06:06:50;;;;;;;85.43;38.33;;;;;;;12.52;69.29;101494.09;5012116;28;20092;-69
2021/03/13 06:09:18;;;;;;;69.15;32.20;;;;;;;12.53;69.47;101488.84;5012807;28;20068;-68
2021/03/13 06:11:46;;;;;;;62.70;29.75;;;;;;;12.68;69.71;101490.88;4994958;28;20046;-68
2021/03/13 06:14:13;;;;;;;50.38;25.73;;;;;;;13.04;69.78;101488.91;5011653;28;20049;-69
2021/03/13 06:16:40;;;;;;;30.77;20.40;;;;;;;13.42;69.04;101481.59;5012459;28;20096;-68
2021/03/13 06:19:07;;;;;;;192.63;92.00;;;;;;;13.79;67.98;101476.81;5011882;28;20490;-69
2021/03/13 06:21:38;;;;;;;219.30;116.00;;;;;;;14.18;67.22;101479.09;5012275;28;20073;-69
2021/03/13 06:24:18;;;;;;;111.57;63.50;;;;;;;14.56;66.15;101467.22;5011905;28;20038;-69
2021/03/13 06:26:54;;;;;;;58.65;38.25;;;;;;;15.03;65.05;101454.34;5011827;28;20562;-69
2021/03/13 06:29:22;;;;;;;50.67;34.67;;;;;;;15.42;63.98;101453.78;5011845;28;20100;-69
2021/03/13 06:32:04;;;;;;;50.45;32.92;;;;;;;15.59;62.92;101437.94;5010642;28;20034;-69
2021/03/13 06:34:31;;;;;;;29.40;16.77;;;;;;;15.80;63.08;101446.06;5012050;28;20038;-69
2021/03/13 06:37:22;;;;;;;21.02;14.63;;;;;;;16.21;62.33;101437.38;5011419;28;20117;-71
2021/03/13 06:39:50;;;;;;;16.75;9.68;;;;;;;16.44;61.51;101451.63;5002542;28;20042;-70
2021/03/13 06:42:22;;;;;;;17.35;11.73;;;;;;;16.44;61.49;101477.38;5011579;28;20037;-69
2021/03/13 06:44:56;;;;;;;15.32;8.50;;;;;;;16.36;61.51;101496.00;4992374;28;20125;-69
2021/03/13 06:47:30;;;;;;;13.88;5.63;;;;;;;16.09;62.15;101509.22;5009889;28;20046;-71
2021/03/13 06:50:12;;;;;;;9.35;4.07;;;;;;;15.99;61.89;101534.03;5011229;28;20038;-69
2021/03/13 06:52:39;;;;;;;7.38;3.25;;;;;;;15.84;62.19;101556.13;5014657;28;20091;-70
2021/03/13 06:55:07;;;;;;;10.02;3.22;;;;;;;15.70;62.18;101558.69;5028420;28;20129;-69
2021/03/13 06:57:35;;;;;;;9.70;2.90;;;;;;;15.58;62.14;101553.28;5013268;28;20029;-69
2021/03/13 07:00:04;;;;;;;7.75;3.10;;;;;;;15.83;62.15;101551.66;5010643;28;20045;-68
2021/03/13 07:02:31;;;;;;;8.05;3.00;;;;;;;16.26;62.00;101542.19;5013508;28;20398;-69
2021/03/13 07:05:10;;;;;;;12.65;6.93;;;;;;;16.60;60.64;101543.25;5016044;28;20062;-68
2021/03/13 07:07:37;;;;;;;9.85;3.75;;;;;;;16.66;59.96;101545.94;5011543;28;20534;-69
2021/03/13 07:10:06;;;;;;;9.18;4.72;;;;;;;16.85;59.26;101555.75;5011155;28;20049;-68
2021/03/13 07:12:37;;;;;;;11.85;4.72;;;;;;;17.12;58.59;101550.50;5014565;28;20061;-69
2021/03/13 07:15:19;;;;;;;7.50;3.97;;;;;;;17.43;58.21;101551.41;4995651;28;20070;-68
2021/03/13 07:17:49;;;;;;;14.55;7.68;;;;;;;17.84;58.05;101550.50;5010750;28;20503;-70
2021/03/13 07:20:19;;;;;;;12.95;6.65;;;;;;;18.11;57.36;101566.50;5006362;28;20947;-69
2021/03/13 07:22:51;;;;;;;15.57;7.18;;;;;;;18.29;57.42;101578.91;5009711;28;20116;-69
2021/03/13 07:25:20;;;;;;;29.33;17.42;;;;;;;18.53;56.71;101588.63;5011061;28;20030;-69
2021/03/13 07:27:54;;;;;;;12.00;5.95;;;;;;;18.62;56.40;101577.94;5010231;28;20045;-69
2021/03/13 07:30:22;;;;;;;22.20;12.88;;;;;;;18.64;55.81;101587.72;5009648;28;20046;-70
2021/03/13 07:32:52;;;;;;;14.32;7.97;;;;;;;18.83;56.37;101584.97;5010699;28;20069;-70
2021/03/13 07:35:23;;;;;;;19.13;8.98;;;;;;;19.01;55.24;101585.75;5010486;28;20045;-70
2021/03/13 07:37:55;;;;;;;19.52;11.43;;;;;;;19.15;54.18;101574.97;5009483;28;20034;-70
2021/03/13 07:40:23;;;;;;;24.88;12.95;;;;;;;19.42;53.65;101579.25;5010118;28;20046;-70
2021/03/13 07:42:52;;;;;;;31.10;18.27;;;;;;;19.58;53.60;101577.34;5023655;28;20083;-70
2021/03/13 07:45:20;;;;;;;21.90;13.05;;;;;;;19.73;53.56;101579.91;5010774;28;20038;-70
2021/03/13 07:47:48;;;;;;;20.30;12.48;;;;;;;19.87;52.89;101583.34;5012759;28;20038;-70
2021/03/13 07:50:17;;;;;;;10.98;5.93;;;;;;;19.94;51.09;101578.81;5010752;28;20046;-70
2021/03/13 07:52:49;;;;;;;11.40;4.22;;;;;;;19.99;50.19;101574.28;5010563;28;20446;-70
2021/03/13 07:55:19;;;;;;;11.13;4.40;;;;;;;20.15;49.16;101563.38;5009038;28;20038;-70
2021/03/13 07:57:49;;;;;;;7.13;3.75;;;;;;;20.30;48.20;101565.91;5021715;28;20038;-69
2021/03/13 08:00:40;;;;;;;8.85;4.60;;;;;;;20.49;47.79;101569.28;4992816;28;20042;-70
2021/03/13 08:03:43;;;;;;;10.10;5.00;;;;;;;20.67;47.01;101571.75;5009682;28;20045;-70
2021/03/13 08:06:12;;;;;;;11.90;5.82;;;;;;;20.75;46.77;101565.38;5009400;28;20037;-70
2021/03/13 08:08:40;;;;;;;12.75;6.43;;;;;;;21.07;46.56;101564.00;5010682;28;20045;-70
2021/03/13 08:11:09;;;;;;;12.98;6.13;;;;;;;21.47;45.97;101566.13;5009510;28;20046;-70
2021/03/13 08:13:50;;;;;;;14.27;6.28;;;;;;;21.80;45.17;101567.34;5010677;28;20045;-70
2021/03/13 08:16:31;;;;;;;9.35;4.93;;;;;;;21.86;45.00;101559.16;5009964;28;20699;-70
2021/03/13 08:18:59;;;;;;;30.90;18.38;;;;;;;21.73;44.77;101571.03;5009638;28;20376;-70
2021/03/13 08:21:45;;;;;;;33.45;18.27;;;;;;;21.67;44.09;101577.41;5010046;28;20473;-70
2021/03/13 08:24:14;;;;;;;9.13;4.22;;;;;;;21.42;44.59;101573.38;5001055;28;20513;-70
2021/03/13 08:27:11;;;;;;;10.45;4.13;;;;;;;21.40;43.94;101564.44;5010390;28;20030;-69
2021/03/13 08:29:54;;;;;;;7.95;4.07;;;;;;;21.51;43.39;101567.84;4999489;28;20117;-70
2021/03/13 08:33:04;;;;;;;7.28;3.50;;;;;;;21.62;43.72;101567.66;5020653;28;20570;-70
2021/03/13 08:35:46;;;;;;;9.60;5.40;;;;;;;21.70;43.50;101560.38;5009855;28;20081;-70
2021/03/13 08:38:15;;;;;;;11.00;5.43;;;;;;;21.80;44.01;101553.91;5001108;28;20050;-70
2021/03/13 08:40:46;;;;;;;11.20;4.18;;;;;;;21.75;42.96;101548.63;5009487;28;20395;-69
2021/03/13 08:43:37;;;;;;;12.43;5.57;;;;;;;21.61;42.71;101553.34;5008009;28;20049;-69
2021/03/13 08:46:06;;;;;;;8.15;3.88;;;;;;;21.61;42.76;101547.06;5008215;28;20426;-70
2021/03/13 08:48:56;;;;;;;8.18;4.28;;;;;;;21.65;43.60;101533.56;5008467;28;20046;-68
2021/03/13 08:51:24;;;;;;;27.00;16.63;;;;;;;21.68;44.33;101521.88;5008340;28;20129;-69
2021/03/13 08:53:51;;;;;;;9.48;5.68;;;;;;;21.68;44.30;101525.44;5021536;28;20046;-70
2021/03/13 08:56:38;;;;;;;7.72;3.30;;;;;;;21.88;44.03;101517.00;5008541;28;20442;-68
2021/03/13 08:59:20;;;;;;;16.33;8.85;;;;;;;21.88;44.08;101523.28;5007946;28;20042;-69
2021/03/13 09:02:04;;;;;;;14.38;5.03;;;;;;;21.78;44.04;101526.19;5011267;28;20044;-69
2021/03/13 09:04:32;;;;;;;9.05;3.65;;;;;;;21.65;44.05;101519.25;5007690;28;20038;-69
2021/03/13 09:07:02;;;;;;;7.80;3.17;;;;;;;21.74;43.46;101511.00;5007556;28;20026;-69
2021/03/13 09:09:32;;;;;;;8.30;3.30;;;;;;;21.75;43.22;101523.53;5013518;28;20054;-69
2021/03/13 09:12:01;;;;;;;6.78;2.95;;;;;;;21.91;43.42;101521.47;5013384;28;20091;-69
2021/03/13 09:14:30;;;;;;;8.05;3.42;;;;;;;22.13;43.14;101510.28;5013518;28;20503;-69
2021/03/13 09:16:57;;;;;;;11.82;3.00;;;;;;;22.06;42.76;101514.00;5012619;28;20121;-69
2021/03/13 09:19:25;;;;;;;15.43;7.15;;;;;;;22.04;42.53;101517.66;5012884;28;20570;-69
2021/03/13 09:21:54;;;;;;;6.93;3.45;;;;;;;22.06;42.60;101521.19;5007297;28;20041;-70
2021/03/13 09:24:27;;;;;;;9.68;4.30;;;;;;;22.15;42.28;101515.63;5010907;28;20085;-70
2021/03/13 09:26:56;;;;;;;8.93;4.18;;;;;;;22.05;42.46;101520.31;5012702;28;20415;-69
2021/03/13 09:29:30;;;;;;;7.68;3.10;;;;;;;22.06;42.27;101524.75;5013451;28;20042;-69
2021/03/13 09:32:01;;;;;;;10.40;3.72;;;;;;;22.16;42.45;101520.97;5012218;28;20487;-69
2021/03/13 09:34:29;;;;;;;7.93;3.70;;;;;;;22.05;42.05;101520.31;4996667;28;20042;-69
2021/03/13 09:36:58;;;;;;;6.57;3.10;;;;;;;22.18;42.48;101524.53;5012762;28;20048;-69
2021/03/13 09:39:28;;;;;;;8.07;3.17;;;;;;;22.15;41.99;101526.38;4995659;28;20046;-69
2021/03/13 09:42:11;;;;;;;6.55;2.35;;;;;;;22.26;41.98;101530.63;5012736;28;20042;-70
2021/03/13 09:44:40;;;;;;;7.72;2.78;;;;;;;22.38;41.89;101523.25;5013235;28;20491;-69
2021/03/13 09:47:15;;;;;;;13.95;6.72;;;;;;;22.37;41.52;101529.53;4994889;28;20169;-69
2021/03/13 09:49:44;;;;;;;7.80;2.78;;;;;;;22.24;41.65;101521.72;5013285;28;20412;-69
2021/03/13 09:52:13;;;;;;;15.80;3.28;;;;;;;22.20;41.82;101520.00;5012726;28;20045;-69
2021/03/13 09:54:42;;;;;;;13.70;6.78;;;;;;;22.08;41.99;101524.72;5013222;28;20049;-69
2021/03/13 09:57:13;;;;;;;9.23;4.32;;;;;;;22.04;41.73;101529.28;5012130;28;20041;-69
2021/03/13 09:59:42;;;;;;;9.43;3.47;;;;;;;22.18;42.03;101516.47;5013064;28;20034;-69
2021/03/13 10:02:10;;;;;;;7.13;3.35;;;;;;;22.29;41.38;101523.41;5012095;28;20047;-69
2021/03/13 10:04:38;;;;;;;11.50;4.07;;;;;;;22.17;41.42;101508.41;5012873;28;20041;-69
2021/03/13 10:07:05;;;;;;;11.45;3.70;;;;;;;22.08;41.25;101522.94;5012348;28;20406;-69
2021/03/13 10:09:33;;;;;;;7.65;3.40;;;;;;;22.11;41.75;101519.31;5012512;28;20503;-69
2021/03/13 10:12:06;;;;;;;5.80;2.58;;;;;;;22.18;41.60;101529.03;5012181;28;20120;-69
2021/03/13 10:14:40;;;;;;;7.78;3.30;;;;;;;22.14;41.57;101536.25;5012758;28;20057;-69
2021/03/13 10:17:07;;;;;;;7.20;3.63;;;;;;;21.80;41.64;101535.06;5011766;28;22256;-69
2021/03/13 10:19:42;;;;;;;28.15;17.85;;;;;;;21.88;41.75;101533.16;4992175;28;20046;-69
2021/03/13 10:22:16;;;;;;;13.10;6.10;;;;;;;21.92;41.29;101531.31;4996571;28;20054;-69
2021/03/13 10:24:48;;;;;;;7.03;3.42;;;;;;;21.97;41.54;101535.72;5011256;28;20064;-68
2021/03/13 10:27:25;;;;;;;7.38;2.45;;;;;;;22.06;40.68;101535.50;5012020;28;20042;-69
2021/03/13 10:30:02;;;;;;;9.98;3.35;;;;;;;21.96;41.25;101538.41;5011262;28;20038;-70
2021/03/13 10:32:31;;;;;;;9.38;3.90;;;;;;;21.90;40.79;101531.31;5012023;28;20042;-69
2021/03/13 10:35:13;;;;;;;8.50;3.47;;;;;;;21.88;41.24;101527.75;5011537;28;20065;-70
2021/03/13 10:37:42;;;;;;;9.27;3.05;;;;;;;21.79;41.80;101536.03;5011739;28;20030;-70
2021/03/13 10:40:12;;;;;;;6.93;2.70;;;;;;;21.60;41.74;101535.44;5009770;28;20515;-70
2021/03/13 10:42:41;;;;;;;6.05;2.50;;;;;;;21.31;42.43;101545.78;5012517;28;20047;-70
2021/03/13 10:45:14;;;;;;;10.02;4.25;;;;;;;21.36;42.24;101536.75;5008779;28;20507;-69
2021/03/13 10:47:42;;;;;;;13.68;6.13;;;;;;;21.22;42.05;101536.06;4994556;28;20038;-70
2021/03/13 10:50:10;;;;;;;9.10;4.57;;;;;;;21.35;41.87;101544.81;5017029;28;20041;-70
2021/03/13 10:52:38;;;;;;;22.40;14.77;;;;;;;20.96;41.95;101549.88;5012036;28;20042;-70
2021/03/13 10:55:08;;;;;;;11.13;3.03;;;;;;;20.93;42.06;101554.41;5011308;28;20038;-70
2021/03/13 10:57:36;;;;;;;15.65;6.93;;;;;;;20.58;42.49;101561.13;5020810;28;20084;-70
2021/03/13 11:00:08;;;;;;;31.80;20.52;;;;;;;20.51;43.67;101559.44;5026413;28;20053;-70
2021/03/13 11:02:36;;;;;;;16.60;8.98;;;;;;;20.61;43.75;101558.41;5024267;28;20128;-70
2021/03/13 11:05:03;;;;;;;50.72;30.50;;;;;;;20.72;43.25;101554.69;5030765;28;20088;-70
2021/03/13 11:07:33;;;;;;;54.55;30.73;;;;;;;20.85;43.21;101549.16;5008353;28;20033;-69
2021/03/13 11:10:01;;;;;;;13.40;5.95;;;;;;;20.74;42.90;101534.09;5010745;28;20080;-70
2021/03/13 11:12:28;;;;;;;9.30;3.80;;;;;;;20.68;43.56;101527.88;5021790;28;20402;-70
2021/03/13 11:14:55;;;;;;;9.10;2.95;;;;;;;20.66;43.51;101518.09;5030583;28;20552;-69
2021/03/13 11:17:24;;;;;;;6.93;2.35;;;;;;;20.87;43.42;101516.91;5031222;28;20088;-70
2021/03/13 11:19:51;;;;;;;6.28;3.25;;;;;;;21.26;42.62;101520.81;4998028;28;20038;-70
2021/03/13 11:22:18;;;;;;;26.52;13.80;;;;;;;21.65;42.04;101524.63;5011624;28;20088;-70
2021/03/13 11:24:45;;;;;;;8.70;2.55;;;;;;;21.56;42.34;101536.41;5010604;28;20046;-69
2021/03/13 11:27:13;;;;;;;6.70;2.88;;;;;;;21.33;43.04;101538.63;5010034;28;20029;-70
2021/03/13 11:29:40;;;;;;;5.97;2.53;;;;;;;21.25;43.25;101532.47;5011285;28;20537;-70
2021/03/13 11:32:08;;;;;;;6.93;2.95;;;;;;;21.57;43.10;101535.50;5009773;28;20042;-70
2021/03/13 11:34:37;;;;;;;9.43;2.30;;;;;;;21.74;42.92;101535.19;5010490;28;20038;-70
2021/03/13 11:37:04;;;;;;;12.98;5.53;;;;;;;21.96;42.33;101543.78;5012339;28;20065;-70